Time;durP1;ratioP1;P1;durP2;ratioP2;P2;SDS_P1;SDS_P2;PMS_P1;PMS_P2;Temp;Humidity;BMP_temperature;BMP_pressure;BME280_temperature;BME280_humidity;BME280_pressure;Samples;Min_cycle;Max_cycle;Signal;HPM_P1;HPM_P2
2022/01/01 00:01:04;;;;;;;104.47;44.88;;;;;;;12.71;68.42;102251.75;5190699;28;20900;-44
2022/01/01 00:03:36;;;;;;;87.82;39.80;;;;;;;12.65;68.49;102248.63;5205430;28;20421;-43
2022/01/01 00:06:09;;;;;;;89.22;37.03;;;;;;;12.60;68.36;102247.31;5180115;28;20417;-42
2022/01/01 00:08:41;;;;;;;94.18;37.88;;;;;;;12.69;68.37;102259.81;5188533;28;20425;-42
2022/01/01 00:11:14;;;;;;;103.85;47.72;;;;;;;12.69;68.59;102265.09;5193233;28;20879;-45
2022/01/01 00:13:48;;;;;;;86.73;29.23;;;;;;;12.58;68.38;102250.13;5203120;28;20444;-42
2022/01/01 00:16:20;;;;;;;86.93;29.45;;;;;;;12.68;68.41;102258.13;5197179;28;20501;-43
2022/01/01 00:18:52;;;;;;;74.63;24.85;;;;;;;12.68;68.34;102258.13;5181879;28;20511;-42
2022/01/01 00:21:25;;;;;;;82.13;24.23;;;;;;;12.69;68.41;102252.69;5189043;28;20410;-42
2022/01/01 00:23:57;;;;;;;72.47;21.60;;;;;;;12.68;68.31;102247.53;5195460;28;20499;-43
2022/01/01 00:26:30;;;;;;;71.07;22.33;;;;;;;12.67;68.40;102251.16;5189884;28;20411;-43
2022/01/01 00:29:03;;;;;;;172.00;94.85;;;;;;;12.68;68.38;102250.19;5188091;28;20429;-42
2022/01/01 00:31:36;;;;;;;95.22;37.30;;;;;;;12.69;68.30;102251.84;5182493;28;20784;-44
2022/01/01 00:34:08;;;;;;;72.82;21.27;;;;;;;12.68;68.36;102252.84;5196044;28;20414;-43
2022/01/01 00:36:40;;;;;;;68.63;19.60;;;;;;;12.60;68.27;102250.81;5199067;28;20401;-43
2022/01/01 00:39:13;;;;;;;66.97;19.42;;;;;;;12.65;68.24;102255.75;5195090;28;20482;-42
2022/01/01 00:41:45;;;;;;;68.22;20.17;;;;;;;12.66;68.22;102257.41;5204467;28;20502;-44
2022/01/01 00:44:19;;;;;;;60.53;18.90;;;;;;;12.67;68.33;102245.88;5207560;28;20423;-44
2022/01/01 00:46:51;;;;;;;63.80;19.02;;;;;;;12.65;68.31;102250.44;5195892;28;20413;-43
2022/01/01 00:49:23;;;;;;;59.40;18.52;;;;;;;12.65;68.24;102242.50;5193005;28;20847;-44
2022/01/01 00:51:56;;;;;;;69.07;22.17;;;;;;;12.64;68.31;102240.81;5191090;28;20414;-44
2022/01/01 00:54:28;;;;;;;64.00;22.60;;;;;;;12.63;68.19;102245.25;5199425;28;20488;-45
2022/01/01 00:57:01;;;;;;;73.77;26.40;;;;;;;12.58;68.44;102242.16;5188753;28;20796;-43
2022/01/01 00:59:34;;;;;;;73.53;30.10;;;;;;;12.58;68.18;102238.69;5181411;28;20407;-43
2022/01/01 01:02:07;;;;;;;69.43;28.27;;;;;;;12.47;68.28;102231.63;5186259;28;20430;-42
2022/01/01 01:04:39;;;;;;;65.68;29.00;;;;;;;12.49;68.28;102248.25;5189398;28;20476;-43
2022/01/01 01:07:12;;;;;;;71.20;33.08;;;;;;;12.45;68.28;102268.03;5194221;28;20485;-44
2022/01/01 01:09:44;;;;;;;84.05;35.45;;;;;;;12.41;68.50;102278.00;5191456;28;20463;-43
2022/01/01 01:12:22;;;;;;;83.93;38.05;;;;;;;12.38;68.47;102272.97;5196906;28;20504;-43
2022/01/01 01:14:56;;;;;;;92.18;41.88;;;;;;;12.29;68.24;102284.31;5193670;28;20422;-42
2022/01/01 01:17:28;;;;;;;122.97;45.88;;;;;;;12.34;68.42;102297.19;5186535;28;20427;-43
2022/01/01 01:20:01;;;;;;;107.33;47.10;;;;;;;12.32;68.63;102294.66;5191544;28;20449;-43
2022/01/01 01:22:33;;;;;;;109.28;51.08;;;;;;;12.36;68.45;102300.56;5192165;28;20445;-42
2022/01/01 01:25:06;;;;;;;123.93;60.95;;;;;;;12.38;68.57;102304.75;5189954;28;20409;-45
2022/01/01 01:27:39;;;;;;;163.93;87.05;;;;;;;12.40;68.40;102307.28;5195449;28;20404;-45
2022/01/01 01:30:16;;;;;;;169.82;96.05;;;;;;;12.39;68.49;102310.91;5184751;28;20817;-45
2022/01/01 01:32:48;;;;;;;189.20;113.07;;;;;;;12.37;68.50;102303.06;5179478;28;20744;-44
2022/01/01 01:35:20;;;;;;;203.30;118.95;;;;;;;12.36;68.60;102312.00;5185090;28;21018;-43
2022/01/01 01:37:53;;;;;;;200.18;116.30;;;;;;;12.35;68.55;102305.00;5202504;28;20426;-43
2022/01/01 01:40:26;;;;;;;202.43;124.88;;;;;;;12.35;68.64;102305.00;5204081;28;20423;-43
2022/01/01 01:42:59;;;;;;;221.77;125.60;;;;;;;12.36;68.55;102301.41;5200457;28;20502;-43
2022/01/01 01:45:33;;;;;;;208.85;125.88;;;;;;;12.40;68.51;102307.28;5199847;28;20756;-43
2022/01/01 01:48:06;;;;;;;225.77;128.00;;;;;;;12.41;68.59;102296.56;5200649;28;20487;-43
2022/01/01 01:50:38;;;;;;;207.83;124.67;;;;;;;12.42;68.53;102284.16;5192656;28;20409;-44
2022/01/01 01:53:12;;;;;;;214.00;125.60;;;;;;;12.40;68.54;102286.94;5189382;28;20418;-44
2022/01/01 01:55:44;;;;;;;214.10;126.90;;;;;;;12.39;68.54;102292.38;5191002;28;20450;-47
2022/01/01 01:58:17;;;;;;;221.63;128.60;;;;;;;12.40;68.39;102292.22;5184701;28;20568;-42
2022/01/01 02:01:20;;;;;;;216.77;123.50;;;;;;;12.40;68.51;102297.53;5183283;28;20517;-42
2022/01/01 02:03:56;;;;;;;212.63;120.30;;;;;;;12.42;68.44;102292.97;5184272;28;20815;-43
2022/01/01 02:06:28;;;;;;;205.33;116.13;;;;;;;12.42;68.42;102300.91;5188539;28;20422;-43
2022/01/01 02:09:01;;;;;;;207.73;111.83;;;;;;;12.41;68.45;102296.56;5188353;28;20427;-42
2022/01/01 02:11:33;;;;;;;186.30;103.78;;;;;;;12.38;68.51;102307.41;5192133;28;20412;-43
2022/01/01 02:14:21;;;;;;;184.20;95.47;;;;;;;12.39;68.60;102305.63;5194848;28;20962;-43
2022/01/01 02:17:10;;;;;;;171.05;82.00;;;;;;;12.42;68.50;102306.19;5178883;28;20783;-44
2022/01/01 02:19:59;;;;;;;155.87;83.47;;;;;;;12.43;68.53;102307.88;5195114;28;20460;-43
2022/01/01 02:22:45;;;;;;;171.73;84.18;;;;;;;12.43;68.71;102310.53;5185691;28;20450;-42
2022/01/01 02:25:20;;;;;;;152.90;77.82;;;;;;;12.51;68.67;102319.66;5185310;28;20427;-43
2022/01/01 02:27:52;;;;;;;147.63;75.40;;;;;;;12.53;68.60;102299.16;5202333;28;20430;-43
2022/01/01 02:30:26;;;;;;;145.00;70.00;;;;;;;12.56;68.54;102299.75;5198097;28;20449;-42
2022/01/01 02:32:59;;;;;;;128.40;62.90;;;;;;;12.58;68.63;102291.69;5195627;28;20856;-42
2022/01/01 02:35:31;;;;;;;136.63;64.53;;;;;;;12.59;68.59;102282.75;5193746;28;20769;-44
2022/01/01 02:38:07;;;;;;;113.45;52.35;;;;;;;12.60;68.74;102273.84;5194266;28;20898;-42
2022/01/01 02:40:39;;;;;;;117.63;52.60;;;;;;;12.64;68.69;102275.28;5193687;28;20407;-42
2022/01/01 02:43:12;;;;;;;96.65;45.88;;;;;;;12.65;68.91;102288.38;5203832;28;20497;-43
2022/01/01 02:45:44;;;;;;;105.80;45.15;;;;;;;12.70;68.49;102282.72;5189781;28;20403;-44
2022/01/01 02:48:17;;;;;;;102.95;40.05;;;;;;;12.72;68.58;102294.00;5202711;28;20437;-43
2022/01/01 02:50:52;;;;;;;82.93;34.10;;;;;;;12.61;68.55;102279.03;5197945;28;20440;-43
2022/01/01 02:53:26;;;;;;;81.85;31.98;;;;;;;12.74;68.50;102300.03;5198878;28;20435;-44
2022/01/01 02:55:58;;;;;;;73.15;30.38;;;;;;;12.79;68.55;102311.09;5195573;28;20513;-41
2022/01/01 02:58:31;;;;;;;76.28;25.20;;;;;;;12.80;68.51;102299.53;5197300;28;20749;-42
2022/01/01 03:01:03;;;;;;;64.93;21.40;;;;;;;12.77;68.64;102291.00;5194304;28;20456;-42
2022/01/01 03:03:36;;;;;;;56.70;17.40;;;;;;;12.84;68.54;102293.00;5189414;28;20409;-48
2022/01/01 03:06:09;;;;;;;59.63;16.47;;;;;;;12.85;68.43;102292.03;5196253;28;20473;-42
2022/01/01 03:08:43;;;;;;;55.30;16.38;;;;;;;12.84;68.51;102285.03;5205191;28;20480;-45
2022/01/01 03:11:16;;;;;;;54.33;15.27;;;;;;;12.83;68.61;102278.06;5191867;28;20797;-43
2022/01/01 03:13:49;;;;;;;50.20;15.35;;;;;;;12.80;68.58;102278.31;5196221;28;20891;-45
2022/01/01 03:16:22;;;;;;;41.35;13.93;;;;;;;12.77;68.69;102261.84;5199404;28;20427;-42
2022/01/01 03:18:54;;;;;;;59.90;17.53;;;;;;;12.75;68.81;102267.25;5188197;28;20419;-43
2022/01/01 03:21:26;;;;;;;55.15;16.80;;;;;;;12.71;68.90;102273.78;5191788;28;20430;-44
2022/01/01 03:24:00;;;;;;;51.58;16.20;;;;;;;12.71;68.93;102273.78;5196561;28;20794;-44
2022/01/01 03:26:32;;;;;;;54.63;17.13;;;;;;;12.72;68.92;102282.56;5199435;28;20413;-43
2022/01/01 03:29:06;;;;;;;63.92;17.75;;;;;;;12.46;68.86;102246.69;5205276;28;20406;-43
2022/01/01 03:31:38;;;;;;;57.30;16.00;;;;;;;12.76;68.86;102289.28;5196195;28;20808;-46
2022/01/01 03:34:10;;;;;;;57.95;17.33;;;;;;;12.75;68.95;102285.81;5195857;28;20419;-43
2022/01/01 03:36:43;;;;;;;52.53;16.75;;;;;;;12.80;68.82;102293.38;5194631;28;20412;-43
2022/01/01 03:39:16;;;;;;;51.30;17.38;;;;;;;12.82;68.85;102281.69;5202332;28;20943;-43
2022/01/01 03:41:49;;;;;;;61.75;18.30;;;;;;;12.82;69.19;102275.53;5192884;28;20472;-44
2022/01/01 03:44:21;;;;;;;65.93;19.07;;;;;;;12.83;68.93;102272.75;5201004;28;20473;-43
2022/01/01 03:47:01;;;;;;;55.57;15.97;;;;;;;12.78;68.79;102267.00;5191236;28;20495;-43
2022/01/01 03:49:34;;;;;;;60.70;17.60;;;;;;;12.90;69.03;102273.91;5188359;28;20502;-42
2022/01/01 03:52:07;;;;;;;58.17;17.10;;;;;;;12.93;68.86;102272.81;5199396;28;20903;-43
2022/01/01 03:54:41;;;;;;;58.90;17.55;;;;;;;12.97;68.84;102276.03;5192918;28;20419;-45
2022/01/01 03:57:13;;;;;;;53.83;17.45;;;;;;;13.02;68.91;102287.94;5192493;28;20427;-41
2022/01/01 03:59:45;;;;;;;52.15;16.40;;;;;;;13.07;68.80;102280.44;5198624;28;20424;-45
2022/01/01 04:02:18;;;;;;;61.35;16.90;;;;;;;13.12;68.76;102280.03;5201237;28;20413;-44
2022/01/01 04:04:50;;;;;;;58.53;16.85;;;;;;;13.14;68.92;102280.75;5187756;28;20423;-45
2022/01/01 04:07:22;;;;;;;56.33;17.35;;;;;;;13.14;68.90;102280.75;5194559;28;20892;-43
2022/01/01 04:09:56;;;;;;;47.17;14.97;;;;;;;13.13;68.92;102276.41;5198410;28;20919;-44
2022/01/01 04:12:28;;;;;;;48.92;15.77;;;;;;;13.13;68.97;102279.06;5199096;28;20437;-43
2022/01/01 04:15:02;;;;;;;43.63;16.00;;;;;;;13.17;69.02;102282.31;5198509;28;20490;-43
2022/01/01 04:17:37;;;;;;;52.75;17.27;;;;;;;13.17;69.06;102285.81;5189365;28;20906;-42
2022/01/01 04:20:10;;;;;;;61.63;18.33;;;;;;;13.21;69.10;102281.06;5187329;28;20430;-44
2022/01/01 04:22:43;;;;;;;47.33;16.65;;;;;;;13.14;69.04;102270.16;5202143;28;20419;-45
2022/01/01 04:25:16;;;;;;;51.17;16.95;;;;;;;13.23;69.08;102274.66;5186737;28;20409;-45
2022/01/01 04:27:49;;;;;;;52.38;18.08;;;;;;;13.24;69.08;102270.19;5192118;28;20500;-42
2022/01/01 04:30:22;;;;;;;53.78;16.90;;;;;;;13.25;69.09;102277.22;5191771;28;20895;-42
2022/01/01 04:32:54;;;;;;;63.05;19.40;;;;;;;13.27;69.15;102276.09;5200419;28;20853;-45
2022/01/01 04:35:27;;;;;;;41.13;17.98;;;;;;;13.30;69.09;102281.16;5201906;28;20429;-42
2022/01/01 04:38:00;;;;;;;45.37;18.73;;;;;;;13.34;69.14;102305.59;5194022;28;20496;-42
2022/01/01 04:40:33;;;;;;;58.45;20.08;;;;;;;13.38;69.15;102299.09;5190059;28;20603;-42
2022/01/01 04:43:05;;;;;;;61.90;21.63;;;;;;;13.33;69.07;102291.50;5185331;28;20414;-43
2022/01/01 04:45:38;;;;;;;60.47;20.58;;;;;;;13.42;69.12;102294.34;5181877;28;21214;-43
2022/01/01 04:48:10;;;;;;;54.47;22.27;;;;;;;13.42;69.25;102287.22;5190761;28;20415;-44
2022/01/01 04:50:42;;;;;;;58.83;22.43;;;;;;;13.18;69.01;102254.81;5190750;28;20552;-42
2022/01/01 04:53:17;;;;;;;53.63;21.20;;;;;;;13.41;69.20;102282.03;5191152;28;20409;-47
2022/01/01 04:55:52;;;;;;;54.15;21.83;;;;;;;13.46;69.27;102290.44;5188548;28;20423;-42
2022/01/01 04:58:24;;;;;;;56.00;22.08;;;;;;;13.46;69.18;102293.09;5192311;28;20418;-43
2022/01/01 05:00:56;;;;;;;64.43;22.83;;;;;;;13.48;69.31;102289.34;5187531;28;20431;-46
2022/01/01 05:03:29;;;;;;;61.03;21.63;;;;;;;13.52;69.17;102289.91;5198553;28;20427;-44
2022/01/01 05:06:01;;;;;;;64.95;20.75;;;;;;;13.53;69.26;102284.47;5188265;28;20427;-42
2022/01/01 05:08:33;;;;;;;47.03;20.83;;;;;;;13.54;69.28;102287.97;5200328;28;22529;-43
2022/01/01 05:11:07;;;;;;;52.80;21.13;;;;;;;13.55;69.20;102279.84;5196520;28;20508;-43
2022/01/01 05:13:39;;;;;;;49.55;19.90;;;;;;;13.50;69.23;102265.31;5194023;28;20426;-42
2022/01/01 05:16:16;;;;;;;45.35;18.95;;;;;;;13.48;69.23;102256.66;5193478;28;20399;-43
2022/01/01 05:18:48;;;;;;;43.50;19.63;;;;;;;13.45;69.23;102262.22;5190432;28;20501;-43
2022/01/01 05:21:21;;;;;;;49.95;18.35;;;;;;;13.41;69.26;102282.03;5201231;28;20933;-42
2022/01/01 05:23:53;;;;;;;47.30;19.07;;;;;;;13.36;69.44;102275.31;5192430;28;20407;-43
2022/01/01 05:26:27;;;;;;;60.57;20.57;;;;;;;13.34;69.37;102277.25;5185993;28;20840;-43
2022/01/01 05:28:59;;;;;;;51.25;20.02;;;;;;;13.34;69.37;102282.56;5195259;28;20454;-43
2022/01/01 05:31:33;;;;;;;48.03;20.27;;;;;;;13.35;69.30;102273.66;5193283;28;20788;-42
2022/01/01 05:34:06;;;;;;;48.70;19.42;;;;;;;13.34;69.25;102263.97;5191045;28;21099;-42
2022/01/01 05:36:38;;;;;;;53.95;21.65;;;;;;;13.34;69.23;102269.28;5191348;28;20439;-42
2022/01/01 05:39:11;;;;;;;49.08;20.77;;;;;;;13.29;69.22;102266.22;5184134;28;20395;-45
2022/01/01 05:41:44;;;;;;;53.88;23.08;;;;;;;13.27;69.24;102262.84;5197253;28;20421;-42
2022/01/01 05:44:17;;;;;;;49.67;21.77;;;;;;;13.23;69.10;102257.91;5194707;28;20514;-42
2022/01/01 05:46:52;;;;;;;56.60;22.85;;;;;;;13.21;69.23;102260.69;5192515;28;20496;-43
2022/01/01 05:49:25;;;;;;;47.55;21.25;;;;;;;13.15;69.26;102255.91;5194049;28;20840;-46
2022/01/01 05:51:57;;;;;;;53.30;23.45;;;;;;;13.15;69.47;102261.22;5200945;28;20948;-43
2022/01/01 05:54:29;;;;;;;66.38;24.70;;;;;;;13.09;69.21;102256.44;5190437;28;20417;-44
2022/01/01 05:57:03;;;;;;;56.38;24.67;;;;;;;13.05;69.29;102239.13;5195493;28;20502;-44
2022/01/01 05:59:40;;;;;;;62.30;25.73;;;;;;;13.03;69.39;102244.53;5186353;28;20411;-44
2022/01/01 06:02:12;;;;;;;62.07;26.80;;;;;;;13.02;69.25;102249.97;5197019;28;20525;-43
2022/01/01 06:04:44;;;;;;;65.17;26.63;;;;;;;13.00;69.38;102246.59;5194408;28;20456;-48
2022/01/01 06:07:17;;;;;;;68.00;27.50;;;;;;;12.99;69.36;102250.25;5192413;28;20545;-42
2022/01/01 06:09:49;;;;;;;72.55;27.00;;;;;;;12.96;69.29;102251.34;5201125;28;20775;-43
2022/01/01 06:12:23;;;;;;;70.32;27.88;;;;;;;13.00;69.33;102262.53;5207255;28;20905;-43
2022/01/01 06:14:55;;;;;;;62.45;28.23;;;;;;;13.00;69.48;102258.06;5204714;28;20514;-44
2022/01/01 06:17:28;;;;;;;68.82;29.27;;;;;;;13.01;69.47;102264.22;5197691;28;20782;-43
2022/01/01 06:20:00;;;;;;;63.33;27.58;;;;;;;13.01;69.49;102264.22;5173626;28;20901;-45
2022/01/01 06:22:32;;;;;;;59.17;27.13;;;;;;;13.01;69.39;102269.53;5170709;28;20905;-42
2022/01/01 06:25:11;;;;;;;75.95;28.45;;;;;;;12.98;69.33;102273.28;5174244;28;20728;-45
2022/01/01 06:27:44;;;;;;;68.00;29.23;;;;;;;13.04;69.28;102274.56;5169475;28;20424;-42
2022/01/01 06:30:17;;;;;;;70.80;28.83;;;;;;;13.07;69.36;102272.50;5171278;28;20424;-44
2022/01/01 06:32:51;;;;;;;64.37;28.50;;;;;;;13.10;69.29;102282.84;5176198;28;20507;-44
2022/01/01 06:35:23;;;;;;;59.60;28.07;;;;;;;13.12;69.35;102282.69;5182507;28;20427;-47
2022/01/01 06:37:56;;;;;;;57.65;28.67;;;;;;;13.12;69.36;102288.84;5170207;28;20420;-44
2022/01/01 06:40:28;;;;;;;60.20;26.77;;;;;;;13.15;69.28;102291.22;5181216;28;20845;-42
2022/01/01 06:43:02;;;;;;;53.05;25.50;;;;;;;13.13;69.34;102289.66;5183217;28;20511;-43
2022/01/01 06:45:35;;;;;;;58.90;27.45;;;;;;;13.15;69.46;102288.56;5171451;28;20405;-43
2022/01/01 06:48:07;;;;;;;54.50;25.98;;;;;;;13.16;69.32;102284.09;5177516;28;20832;-43
2022/01/01 06:50:40;;;;;;;58.70;25.35;;;;;;;13.15;69.31;102279.78;5173853;28;20836;-43
2022/01/01 06:53:13;;;;;;;46.80;22.25;;;;;;;13.13;69.54;102268.44;5172295;28;20419;-42
2022/01/01 06:55:45;;;;;;;46.80;23.50;;;;;;;13.13;69.51;102263.16;5174011;28;20405;-46
2022/01/01 06:58:19;;;;;;;46.58;21.85;;;;;;;13.12;69.40;102257.00;5168999;28;20774;-45
2022/01/01 07:00:51;;;;;;;46.15;22.08;;;;;;;13.11;69.51;102254.50;5178646;28;20407;-45
2022/01/01 07:03:24;;;;;;;55.50;22.42;;;;;;;13.12;69.56;102264.13;5174044;28;20833;-43
2022/01/01 07:05:56;;;;;;;46.10;19.65;;;;;;;13.11;69.56;102259.81;5173225;28;20423;-43
2022/01/01 07:08:29;;;;;;;42.17;18.88;;;;;;;13.13;69.52;102255.19;5188565;28;20488;-42
2022/01/01 07:11:01;;;;;;;40.10;19.63;;;;;;;13.11;69.49;102255.34;5183232;28;20497;-44
2022/01/01 07:13:35;;;;;;;42.23;16.90;;;;;;;13.11;69.40;102270.41;5174869;28;20392;-42
2022/01/01 07:16:07;;;;;;;44.20;17.25;;;;;;;13.05;69.52;102286.84;5175091;28;20882;-43
2022/01/01 07:18:40;;;;;;;42.75;18.20;;;;;;;13.07;69.52;102284.91;5202227;28;20409;-43
2022/01/01 07:21:12;;;;;;;36.67;16.73;;;;;;;13.08;69.61;102281.28;5201940;28;20423;-42
2022/01/01 07:23:45;;;;;;;29.48;16.63;;;;;;;13.06;69.69;102272.59;5189097;28;20407;-48
2022/01/01 07:26:17;;;;;;;38.05;17.42;;;;;;;13.07;69.67;102275.16;5196399;28;20425;-44
2022/01/01 07:28:51;;;;;;;42.50;17.77;;;;;;;13.12;69.52;102280.03;5196949;28;20434;-42
2022/01/01 07:31:23;;;;;;;38.90;17.30;;;;;;;13.16;69.53;102286.75;5195725;28;20928;-44
2022/01/01 07:33:55;;;;;;;32.65;15.32;;;;;;;13.18;69.55;102282.16;5196368;28;20512;-43
2022/01/01 07:36:28;;;;;;;34.53;16.63;;;;;;;13.18;69.66;102287.47;5190026;28;20476;-43
2022/01/01 07:39:00;;;;;;;35.83;15.50;;;;;;;13.18;69.67;102290.13;5201808;28;20546;-43
2022/01/01 07:41:32;;;;;;;35.50;15.07;;;;;;;13.21;69.71;102289.88;5187450;28;20421;-42
2022/01/01 07:44:07;;;;;;;31.23;14.95;;;;;;;13.24;69.39;102296.72;5194246;28;20449;-42
2022/01/01 07:46:39;;;;;;;32.27;15.87;;;;;;;13.25;69.55;102299.25;5184940;28;20417;-44
2022/01/01 07:49:11;;;;;;;30.77;13.97;;;;;;;13.27;69.70;102302.63;5185287;28;20449;-43
2022/01/01 07:51:44;;;;;;;34.60;14.20;;;;;;;13.26;69.56;102294.81;5191684;28;21143;-39
2022/01/01 07:54:16;;;;;;;31.40;14.80;;;;;;;13.28;69.66;102291.03;5194487;28;20742;-45
2022/01/01 07:56:48;;;;;;;31.83;14.93;;;;;;;13.33;69.60;102291.50;5202641;28;20445;-43
2022/01/01 07:59:22;;;;;;;28.20;14.73;;;;;;;13.34;69.62;102293.16;5198126;28;20419;-44
2022/01/01 08:01:54;;;;;;;29.52;14.00;;;;;;;13.37;69.59;102284.09;5197380;28;20420;-43
2022/01/01 08:04:27;;;;;;;34.00;14.48;;;;;;;13.40;69.55;102275.06;5189501;28;20917;-44
2022/01/01 08:07:01;;;;;;;30.47;14.03;;;;;;;13.43;69.50;102274.78;5187348;28;20497;-43
2022/01/01 08:09:33;;;;;;;34.88;14.02;;;;;;;13.46;69.51;102277.16;5193176;28;20431;-44
2022/01/01 08:12:07;;;;;;;28.15;13.43;;;;;;;13.40;69.39;102281.19;5192066;28;20419;-44
2022/01/01 08:14:41;;;;;;;32.77;14.17;;;;;;;13.52;69.42;102287.25;5191900;28;20417;-43
2022/01/01 08:17:13;;;;;;;26.70;12.35;;;;;;;13.53;69.42;102292.44;5193972;28;20542;-44
2022/01/01 08:19:46;;;;;;;30.25;13.02;;;;;;;13.51;69.40;102289.06;5196955;28;20418;-46
2022/01/01 08:22:18;;;;;;;25.30;12.20;;;;;;;13.52;69.39;102287.25;5185170;28;20395;-43
2022/01/01 08:24:51;;;;;;;25.60;11.98;;;;;;;13.51;69.47;102278.47;5198765;28;20413;-46
2022/01/01 08:27:23;;;;;;;24.35;12.18;;;;;;;13.50;69.43;102291.84;5190262;28;20416;-45
2022/01/01 08:29:57;;;;;;;29.33;12.95;;;;;;;13.50;69.62;102286.53;5204752;28;20421;-42
2022/01/01 08:32:29;;;;;;;23.30;12.20;;;;;;;13.47;69.59;102284.16;5192216;28;20415;-43
2022/01/01 08:35:02;;;;;;;23.33;12.60;;;;;;;13.50;69.57;102287.41;5203122;28;20886;-43
2022/01/01 08:37:34;;;;;;;26.60;11.88;;;;;;;13.51;69.43;102289.06;5196027;28;21960;-44
2022/01/01 08:40:08;;;;;;;30.85;12.50;;;;;;;13.53;69.63;102286.28;5207533;28;20479;-43
2022/01/01 08:42:40;;;;;;;23.85;12.23;;;;;;;13.58;69.47;102279.59;5193567;28;20844;-44
2022/01/01 08:45:14;;;;;;;24.80;11.85;;;;;;;13.64;69.38;102272.91;5201660;28;20415;-44
2022/01/01 08:47:46;;;;;;;26.30;11.38;;;;;;;13.70;69.30;102260.91;5193009;28;20414;-42
2022/01/01 08:50:19;;;;;;;24.75;11.88;;;;;;;13.72;69.20;102261.59;5192242;28;20407;-44
2022/01/01 08:52:52;;;;;;;26.35;11.82;;;;;;;13.71;69.31;102258.09;5196092;28;20883;-47
2022/01/01 08:55:24;;;;;;;24.95;11.45;;;;;;;13.71;69.26;102263.41;5193445;28;20913;-43
2022/01/01 08:57:56;;;;;;;29.05;11.27;;;;;;;13.72;69.04;102254.50;5208253;28;20893;-43
2022/01/01 09:00:30;;;;;;;25.45;10.50;;;;;;;13.69;69.22;102254.78;5193296;28;20407;-44
2022/01/01 09:03:03;;;;;;;28.93;12.40;;;;;;;13.65;69.22;102258.66;5199775;28;20838;-43
2022/01/01 09:05:35;;;;;;;21.27;11.10;;;;;;;13.64;69.20;102246.34;5196664;28;20425;-43
2022/01/01 09:08:07;;;;;;;23.40;11.00;;;;;;;13.65;69.27;102233.91;5199452;28;20997;-43
2022/01/01 09:10:39;;;;;;;23.40;11.93;;;;;;;13.61;69.26;102236.84;5190546;28;20417;-43
2022/01/01 09:13:12;;;;;;;24.60;11.02;;;;;;;13.62;69.20;102235.03;5202258;28;20406;-44
2022/01/01 09:15:46;;;;;;;23.85;11.90;;;;;;;13.62;69.08;102227.06;5203199;28;20473;-43
2022/01/01 09:18:18;;;;;;;22.35;11.07;;;;;;;13.63;69.28;102228.75;5191612;28;20870;-46
2022/01/01 09:20:50;;;;;;;26.60;11.20;;;;;;;13.61;69.16;102222.75;5198836;28;20416;-44
2022/01/01 09:23:23;;;;;;;25.33;11.57;;;;;;;13.60;69.14;102224.56;5204822;28;20419;-44
2022/01/01 09:25:55;;;;;;;27.93;11.67;;;;;;;13.60;69.34;102215.75;5201928;28;20501;-43
2022/01/01 09:28:27;;;;;;;22.93;10.90;;;;;;;13.61;69.14;102214.78;5192351;28;20493;-44
2022/01/01 09:31:03;;;;;;;29.52;12.25;;;;;;;13.56;69.12;102207.22;5200794;28;20807;-43
2022/01/01 09:33:35;;;;;;;24.03;12.73;;;;;;;13.61;69.30;102225.41;5197405;28;20569;-42
2022/01/01 09:36:09;;;;;;;18.38;10.95;;;;;;;13.62;69.02;102216.44;5203837;28;20820;-43
2022/01/01 09:38:42;;;;;;;29.63;12.38;;;;;;;13.62;68.96;102213.78;5194761;28;20469;-42
2022/01/01 09:41:15;;;;;;;25.33;12.35;;;;;;;13.64;68.99;102217.16;5189698;28;20820;-39
2022/01/01 09:43:49;;;;;;;23.67;11.45;;;;;;;13.56;68.94;102214.34;5192079;28;21085;-43
2022/01/01 09:46:24;;;;;;;21.08;11.25;;;;;;;13.62;68.97;102216.44;5186941;28;20415;-43
2022/01/01 09:48:57;;;;;;;24.92;11.75;;;;;;;13.66;68.87;102217.88;5185758;28;20923;-44
2022/01/01 09:51:29;;;;;;;21.75;11.80;;;;;;;13.44;68.75;102180.91;5198871;28;20893;-43
2022/01/01 09:54:01;;;;;;;22.27;12.05;;;;;;;13.70;68.75;102219.28;5182944;28;20828;-42
2022/01/01 09:56:34;;;;;;;22.65;11.27;;;;;;;13.69;68.76;102220.25;5199482;28;20417;-45
2022/01/01 09:59:06;;;;;;;29.48;12.65;;;;;;;13.71;68.67;102223.59;5188471;28;20431;-42
2022/01/01 10:01:40;;;;;;;25.30;11.77;;;;;;;13.67;68.66;102211.56;5193404;28;20488;-44
2022/01/01 10:04:14;;;;;;;23.00;12.18;;;;;;;13.77;68.82;102212.44;5182946;28;20936;-44
2022/01/01 10:07:03;;;;;;;25.17;11.70;;;;;;;13.81;68.56;102221.81;5197298;28;20474;-44
2022/01/01 10:09:37;;;;;;;30.50;13.07;;;;;;;13.84;68.46;102226.84;5195080;28;20458;-43
2022/01/01 10:12:16;;;;;;;25.35;12.50;;;;;;;13.78;68.37;102211.47;5192145;28;20425;-43
2022/01/01 10:14:49;;;;;;;24.85;11.25;;;;;;;13.83;68.44;102230.47;5193023;28;20422;-45
2022/01/01 10:17:25;;;;;;;25.15;12.23;;;;;;;13.83;68.43;102241.09;5191814;28;20411;-44
2022/01/01 10:19:57;;;;;;;24.60;11.88;;;;;;;13.83;68.54;102238.44;5187945;28;20411;-42
2022/01/01 10:22:29;;;;;;;26.40;12.63;;;;;;;13.87;68.36;102227.53;5198454;28;20423;-44
2022/01/01 10:27:58;;;;;;;21.25;11.55;;;;;;;13.91;68.31;102234.28;5194194;28;20877;-43
2022/01/01 10:30:35;;;;;;;24.53;10.83;;;;;;;13.87;68.82;102232.84;5202436;28;20417;-44
2022/01/01 10:33:15;;;;;;;24.85;11.65;;;;;;;13.97;68.32;102241.69;5197309;28;20429;-45
2022/01/01 10:35:50;;;;;;;24.83;12.10;;;;;;;13.99;68.21;102253.00;5191332;28;20403;-44
2022/01/01 10:38:26;;;;;;;23.17;12.82;;;;;;;13.96;68.33;102232.03;5189030;28;20491;-43
2022/01/01 10:41:08;;;;;;;26.10;13.17;;;;;;;14.08;68.34;102244.19;5191271;28;20462;-44
2022/01/01 10:43:42;;;;;;;28.58;14.40;;;;;;;14.17;68.04;102238.06;5202949;28;20436;-42
2022/01/01 10:46:19;;;;;;;26.05;13.98;;;;;;;14.21;68.08;102238.63;5196718;28;20763;-45
2022/01/01 10:48:58;;;;;;;22.65;13.27;;;;;;;14.28;68.19;102235.28;5182230;28;20834;-45
2022/01/01 10:51:37;;;;;;;29.65;15.60;;;;;;;14.34;68.17;102233.03;5203164;28;20417;-44
2022/01/01 10:54:10;;;;;;;29.33;16.67;;;;;;;14.39;67.93;102214.84;5199746;28;20430;-47
2022/01/01 10:56:44;;;;;;;29.25;15.88;;;;;;;14.39;67.86;102207.69;5201929;28;21035;-45
2022/01/01 10:59:28;;;;;;;28.38;16.67;;;;;;;14.40;67.91;102216.50;5193620;28;20419;-44
2022/01/01 11:02:01;;;;;;;26.80;15.30;;;;;;;14.39;67.83;102213.03;5196831;28;20508;-44
2022/01/01 11:04:35;;;;;;;27.83;17.75;;;;;;;14.39;67.85;102205.03;5187214;28;20780;-45
2022/01/01 11:07:08;;;;;;;31.83;17.63;;;;;;;14.39;67.68;102202.38;5188774;28;20413;-43
2022/01/01 11:09:41;;;;;;;33.30;18.17;;;;;;;14.38;67.68;102213.19;5203522;28;20832;-43
2022/01/01 11:12:17;;;;;;;27.73;18.83;;;;;;;14.37;67.72;102206.16;5198887;28;20441;-43
2022/01/01 11:14:50;;;;;;;31.52;18.95;;;;;;;14.37;67.67;102201.72;5202732;28;20765;-43
2022/01/01 11:17:25;;;;;;;33.30;19.67;;;;;;;14.39;67.63;102209.53;5200774;28;20548;-43
2022/01/01 11:20:02;;;;;;;32.38;21.63;;;;;;;14.43;67.69;102197.63;5177150;28;20518;-43
2022/01/01 11:22:35;;;;;;;36.55;21.48;;;;;;;14.49;67.58;102194.41;5169655;28;20401;-44
2022/01/01 11:25:09;;;;;;;36.35;22.02;;;;;;;14.56;67.52;102198.22;5183527;28;20424;-45
2022/01/01 11:27:43;;;;;;;32.85;20.95;;;;;;;14.58;67.41;102172.31;5167223;28;20905;-43
2022/01/01 11:30:17;;;;;;;33.13;22.20;;;;;;;14.57;67.44;102160.00;5170174;28;20419;-49
2022/01/01 11:32:54;;;;;;;35.72;23.60;;;;;;;14.60;67.52;102170.34;5171844;28;20421;-44
2022/01/01 11:35:32;;;;;;;35.78;21.70;;;;;;;14.64;67.27;102178.88;5183587;28;20424;-43
2022/01/01 11:38:07;;;;;;;33.45;21.70;;;;;;;14.65;67.45;102167.28;5171942;28;21996;-45